SBJU/JDO METAR and TAF weather

Enter ICAO airport designator
Station Type Date Time Source
SBJU METAR 2022/08/13 11:00 UTC NOAA

SBJU 131100Z 13013KT 9999 FEW020 24/17 Q1023


Station Type Date Time Source
SBJU Decoded METAR 2022/08/13 11:00 UTC NOAA

Station name not available
Aug 13, 2022 - 07:00 AM EDT / 2022.08.13 1100 UTC
Wind: from the SE (130 degrees) at 15 MPH (13 KT):0
Visibility: greater than 7 mile(s):0
Sky conditions: mostly clear
Temperature: 75 F (24 C)
Dew Point: 62 F (17 C)
Relative Humidity: 64%
Pressure (altimeter): 30.21 in. Hg (1023 hPa)
ob: SBJU 131100Z 13013KT 9999 FEW020 24/17 Q1023
cycle: 11

Station Type Date Time Source
SBJU TAF 2011/11/01 00:05 UTC NOAA

TAF SBJU 012200Z 0200/0212 00000KT 9999 SCT020 TX28/0200Z TN24/0207Z
BECMG 0210/0212 06005KT
RMK PCE

Example: see airport list